»·PEaware :: AAL491 KPHX-KDEN

AAL491 :: KPHX-KDEN

FLIGHT INFORMATION

Flight Status: Arrived
Operator:
American Airlines
More flights by this operator :: More flights under this callsign
Pilot: Jim M. (18055)
Aircraft: BOEING 777-200
(B772)
More flights by this aircraft type
Origin: KPHX Phoenix Sky Harbor Intl
United States
Destination: KDEN Denver Intl
United States
More flights between these airports :: More routes between these airports
Route: +MRBIL1 YOOPR OURAY PEEEK3
File this flight plan on PilotEdge
Remarks:
Altitude:
(Current/Filed)
35,000ft
Speed:
(Current/Filed)
450kts
Departed: 22-Feb-20 01:11 PM
Arrived: 22-Feb-20 02:23 PM
Distance/Time
Traveled:
522nm/1:12
Distance/Time
To Go:
Arrived

Flight Plot

Page will automatically refresh every two minutes.

Flight plan parsing failed; only flown route is shown


Map Options




Map Legend


Flown Route
Filed Route
Departure Airport
Arrival Airport
Navaid (VOR, NDB)
Fix

Horizontal Profiles

Position Reports

Time Latitude Longitude Heading Altitude Ground
Speed
22-Feb-20 12:55 33.438346 -111.993021 289 1148ft 0kts
22-Feb-20 12:56 33.438346 -111.993022 289 1148ft 0kts
22-Feb-20 12:57 33.438346 -111.993023 289 1148ft 0kts
22-Feb-20 12:58 33.438346 -111.993023 289 1148ft 0kts
22-Feb-20 12:59 33.438347 -111.993024 289 1148ft 0kts
22-Feb-20 13:00 33.438558 -111.993448 303 1148ft 11kts
22-Feb-20 13:01 33.438988 -111.996941 269 1148ft 9kts
22-Feb-20 13:02 33.438970 -112.002041 268 1148ft 19kts
22-Feb-20 13:03 33.438995 -112.007928 266 1148ft 15kts
22-Feb-20 13:04 33.438958 -112.010619 272 1148ft 8kts
22-Feb-20 13:05 33.439727 -112.013270 266 1148ft 13kts
22-Feb-20 13:06 33.439687 -112.018384 270 1148ft 17kts
22-Feb-20 13:07 33.439697 -112.023717 269 1148ft 15kts
22-Feb-20 13:08 33.439668 -112.028399 270 1148ft 12kts
22-Feb-20 13:09 33.439753 -112.029447 314 1148ft 1kts
22-Feb-20 13:10 33.440841 -112.025919 90 1148ft 83kts
22-Feb-20 13:11 33.436694 -111.967428 71 3952ft 210kts
22-Feb-20 13:12 33.443417 -111.898012 109 7387ft 261kts
22-Feb-20 13:13 33.471580 -111.815191 33 9810ft 302kts
22-Feb-20 13:14 33.559372 -111.813652 339 12851ft 357kts
22-Feb-20 13:15 33.669087 -111.827476 359 15734ft 433kts
22-Feb-20 13:16 33.789588 -111.784144 23 19317ft 474kts
22-Feb-20 13:17 33.901613 -111.693899 39 21764ft 499kts
22-Feb-20 13:18 34.015213 -111.589194 34 24856ft 527kts
22-Feb-20 13:19 34.142703 -111.491796 29 27586ft 557kts
22-Feb-20 13:20 34.277072 -111.388648 29 30043ft 586kts
22-Feb-20 13:21 34.416136 -111.281732 28 32705ft 596kts
22-Feb-20 13:22 34.556119 -111.172824 28 34978ft 602kts
22-Feb-20 13:23 34.697300 -111.068963 22 35081ft 588kts
22-Feb-20 13:24 34.842515 -110.976230 22 35079ft 589kts
22-Feb-20 13:25 34.986641 -110.881550 22 35057ft 589kts
22-Feb-20 13:26 35.130667 -110.786480 22 35051ft 588kts
22-Feb-20 13:27 35.275175 -110.690541 22 35054ft 589kts
22-Feb-20 13:28 35.419067 -110.594817 22 35064ft 590kts
22-Feb-20 13:29 35.563380 -110.498087 22 35077ft 591kts
22-Feb-20 13:30 35.699854 -110.383985 43 35082ft 604kts
22-Feb-20 13:31 35.806943 -110.224301 49 35107ft 607kts
22-Feb-20 13:32 35.917335 -110.066010 47 35121ft 607kts
22-Feb-20 13:33 36.027809 -109.909128 48 35132ft 607kts
22-Feb-20 13:34 36.138346 -109.750817 48 35140ft 607kts
22-Feb-20 13:35 36.248264 -109.592599 48 35145ft 606kts
22-Feb-20 13:36 36.357861 -109.434102 48 35151ft 604kts
22-Feb-20 13:37 36.466547 -109.276186 48 35158ft 601kts
22-Feb-20 13:38 36.574926 -109.117965 47 35157ft 599kts
22-Feb-20 13:39 36.682479 -108.960203 47 35158ft 598kts
22-Feb-20 13:40 36.790173 -108.801469 47 35145ft 597kts
22-Feb-20 13:41 36.897075 -108.643184 47 35137ft 597kts
22-Feb-20 13:42 37.003985 -108.484107 47 35135ft 597kts
22-Feb-20 13:43 37.110732 -108.324518 47 35138ft 598kts
22-Feb-20 13:44 37.217263 -108.164474 47 35148ft 599kts
22-Feb-20 13:45 37.323913 -108.003473 47 35162ft 600kts
22-Feb-20 13:46 37.430483 -107.841800 47 35177ft 600kts
22-Feb-20 13:47 37.536711 -107.679855 47 35179ft 600kts
22-Feb-20 13:48 37.642970 -107.517063 47 35183ft 600kts
22-Feb-20 13:49 37.748546 -107.354505 47 35186ft 600kts
22-Feb-20 13:50 37.854201 -107.191012 47 35215ft 598kts
22-Feb-20 13:51 37.959037 -107.027978 47 35247ft 597kts
22-Feb-20 13:52 38.063675 -106.864938 46 35268ft 594kts
22-Feb-20 13:53 38.167202 -106.702039 47 35260ft 593kts
22-Feb-20 13:55 38.273638 -106.542454 39 35272ft 586kts
22-Feb-20 13:56 38.391819 -106.401106 38 34732ft 585kts
22-Feb-20 13:57 38.506834 -106.257296 38 33851ft 574kts
22-Feb-20 13:58 38.620698 -106.114864 39 32824ft 566kts
22-Feb-20 13:59 38.731522 -105.975871 39 31623ft 548kts
22-Feb-20 14:00 38.837971 -105.841232 40 30142ft 526kts
22-Feb-20 14:01 38.938812 -105.713395 40 27853ft 490kts
22-Feb-20 14:02 39.033056 -105.593083 41 25599ft 465kts
22-Feb-20 14:03 39.120938 -105.480242 41 22999ft 431kts
22-Feb-20 14:04 39.204289 -105.373469 41 21014ft 407kts
22-Feb-20 14:05 39.282498 -105.279039 33 20371ft 368kts
22-Feb-20 14:06 39.363352 -105.200932 34 19034ft 358kts
22-Feb-20 14:07 39.441703 -105.124677 33 17677ft 349kts
22-Feb-20 14:08 39.518082 -105.050302 34 15897ft 335kts
22-Feb-20 14:09 39.591579 -104.977826 34 14091ft 324kts
22-Feb-20 14:10 39.662699 -104.907609 34 13040ft 318kts
22-Feb-20 14:11 39.736605 -104.846784 10 12884ft 310kts
22-Feb-20 14:12 39.820656 -104.839824 356 11690ft 299kts
22-Feb-20 14:13 39.899250 -104.839507 357 11087ft 260kts
22-Feb-20 14:13 39.958099 -104.839579 357 10578ft 245kts
22-Feb-20 14:15 40.036641 -104.839814 359 8510ft 241kts
22-Feb-20 14:16 40.093035 -104.810998 67 7325ft 236kts
22-Feb-20 14:16 40.101929 -104.744651 88 7029ft 214kts
22-Feb-20 14:18 40.055612 -104.696686 172 7007ft 207kts
22-Feb-20 14:19 39.999671 -104.694879 179 6996ft 197kts
22-Feb-20 14:19 39.957678 -104.695365 176 6679ft 163kts
22-Feb-20 14:20 39.918516 -104.695786 176 5896ft 131kts
22-Feb-20 14:22 39.870630 -104.696458 170 5445ft 135kts
22-Feb-20 14:22 39.861650 -104.696429 178 5444ft 17kts
22-Feb-20 14:23 39.860425 -104.690467 89 5444ft 18kts
22-Feb-20 14:24 39.860435 -104.685238 90 5444ft 0kts
22-Feb-20 14:25 39.859068 -104.683916 178 5444ft 19kts
22-Feb-20 14:26 39.856060 -104.682704 86 5444ft 12kts
22-Feb-20 14:27 39.856075 -104.677695 100 5444ft 9kts
22-Feb-20 14:28 39.855752 -104.675011 144 5444ft 4kts
22-Feb-20 14:29 39.854493 -104.674988 186 5444ft 3kts
22-Feb-20 14:30 39.854411 -104.675000 185 5444ft 0kts
22-Feb-20 14:31 39.854411 -104.675000 185 5444ft 0kts

Navigation Log

Ident Type
Flight plan parsing failed, navigation log unavailable